EGKB - Biggin Hill
Distance from station: E 5mi, 14km
Updated: 12/12/2017 1:20pm
Light rain, Showers, Partly cloudy
Light rain, Showers, Partly cloudy
 Wind from S
Wind: S 14 mph , 22 km/h
Temperature: 39°F , 4°C
Wind Chill: 31°F , -1°C
Dew Point: 36°F , 2°C
Humidity: 87%
Barometer: 29.74 inHg , 1007 hPa
Summary: Light rain, Showers
Clouds: Partly Cloudy
Visibility: 6 miles , 10 km
2017/12/12 21:20 EGKB 122120Z 19012KT 9999 -SHRA NSC 04/02 Q1007 R88/7201//